createdAt,value
2023-02-04T00:00:41.988Z,97399.03
2023-02-04T00:03:29.700Z,97404.72
2023-02-04T00:05:58.403Z,97406.34
2023-02-04T00:08:27.021Z,97389.91
2023-02-04T00:10:55.616Z,97399.75
2023-02-04T00:13:26.386Z,97397.59
2023-02-04T00:15:55.107Z,97385.94
2023-02-04T00:18:23.448Z,97384.38
2023-02-04T00:20:51.890Z,97393.53
2023-02-04T00:23:20.186Z,97391.72
2023-02-04T00:25:49.015Z,97377.06
2023-02-04T00:28:17.302Z,97387.66
2023-02-04T00:30:48.331Z,97381.50
2023-02-04T00:33:16.692Z,97392.13
2023-02-04T00:35:45.364Z,97401.75
2023-02-04T00:38:13.704Z,97383.28
2023-02-04T00:40:42.306Z,97395.06
2023-02-04T00:43:10.697Z,97404.16
2023-02-04T00:45:39.211Z,97404.72
2023-02-04T00:48:09.109Z,97398.66
2023-02-04T00:50:39.981Z,97395.41
2023-02-04T00:53:08.459Z,97395.19
2023-02-04T00:55:37.315Z,97394.75
2023-02-04T00:58:05.635Z,97389.41
2023-02-04T01:00:34.327Z,97369.72
2023-02-04T01:03:02.829Z,97404.44
2023-02-04T01:05:33.222Z,97380.19
2023-02-04T01:08:01.726Z,97375.25
2023-02-04T01:10:30.939Z,97378.84
2023-02-04T01:12:59.849Z,97370.59
2023-02-04T01:15:28.595Z,97366.06
2023-02-04T01:17:57.092Z,97373.41
2023-02-04T01:20:25.700Z,97365.38
2023-02-04T01:22:55.847Z,97365.81
2023-02-04T01:25:24.530Z,97362.53
2023-02-04T01:27:52.968Z,97361.69
2023-02-04T01:30:22.314Z,97360.44
2023-02-04T01:32:50.534Z,97349.56
2023-02-04T01:35:19.295Z,97354.38
2023-02-04T01:37:47.433Z,97354.19
2023-02-04T01:40:17.469Z,97369.41
2023-02-04T01:42:45.690Z,97363.16
2023-02-04T01:45:14.426Z,97372.44
2023-02-04T01:47:43.072Z,97378.84
2023-02-04T01:50:13.194Z,97392.97
2023-02-04T01:52:42.114Z,97399.63
2023-02-04T01:55:15.508Z,97389.34
2023-02-04T01:57:45.802Z,97401.00
2023-02-04T02:00:17.722Z,97415.09
2023-02-04T02:02:48.616Z,97405.16
2023-02-04T02:05:21.262Z,97405.44
2023-02-04T02:07:49.811Z,97406.06
2023-02-04T02:10:19.314Z,97416.31
2023-02-04T02:12:49.466Z,97415.03
2023-02-04T02:15:18.705Z,97417.13
2023-02-04T02:17:47.310Z,97417.38
2023-02-04T02:20:17.893Z,97426.06
2023-02-04T02:22:54.307Z,97429.72
2023-02-04T02:25:24.295Z,97438.97
2023-02-04T02:27:53.095Z,97455.50
2023-02-04T02:30:21.920Z,97462.06
2023-02-04T02:32:52.413Z,97467.44
2023-02-04T02:35:21.209Z,97464.56
2023-02-04T02:37:49.664Z,97467.41
2023-02-04T02:40:18.796Z,97473.38
2023-02-04T02:42:50.864Z,97480.56
2023-02-04T02:45:30.618Z,97484.03
2023-02-04T02:48:00.402Z,97476.56
2023-02-04T02:50:31.441Z,97488.84
2023-02-04T02:53:00.150Z,97491.41
2023-02-04T02:55:29.919Z,97494.94
2023-02-04T02:57:59.693Z,97494.91
2023-02-04T03:00:30.754Z,97493.59
2023-02-04T03:03:00.947Z,97508.94
2023-02-04T03:05:32.222Z,97499.88
2023-02-04T03:08:00.681Z,97512.06
2023-02-04T03:10:29.473Z,97503.66
2023-02-04T03:13:01.042Z,97496.06
2023-02-04T03:15:29.623Z,97514.50
2023-02-04T03:17:58.234Z,97511.28
2023-02-04T03:20:28.918Z,97518.59
2023-02-04T03:22:58.413Z,97522.66
2023-02-04T03:25:29.066Z,97521.03
2023-02-04T03:28:00.286Z,97534.06
2023-02-04T03:30:29.591Z,97534.56
2023-02-04T03:32:58.635Z,97536.44
2023-02-04T03:35:27.631Z,97557.00
2023-02-04T03:37:56.189Z,97556.22
2023-02-04T03:40:24.730Z,97571.97
2023-02-04T03:42:53.157Z,97573.59
2023-02-04T03:45:23.066Z,97590.50
2023-02-04T03:47:51.414Z,97593.19
2023-02-04T03:50:20.054Z,97598.09
2023-02-04T03:52:49.107Z,97613.25
2023-02-04T03:55:17.872Z,97628.19
2023-02-04T03:57:46.094Z,97632.53
2023-02-04T04:00:15.696Z,97649.63
2023-02-04T04:02:45.452Z,97658.88
2023-02-04T04:05:14.055Z,97678.97
2023-02-04T04:07:42.313Z,97698.53
2023-02-04T04:10:11.280Z,97731.53
2023-02-04T04:12:39.734Z,97739.84
2023-02-04T04:15:09.374Z,97757.69
2023-02-04T04:17:37.700Z,97755.59
2023-02-04T04:20:08.319Z,97803.59
2023-02-04T04:22:36.801Z,97816.34
2023-02-04T04:25:05.710Z,97831.06
2023-02-04T04:27:34.148Z,97855.53
2023-02-04T04:30:03.165Z,97856.16
2023-02-04T04:32:31.518Z,97892.88
2023-02-04T04:35:00.517Z,97896.00
2023-02-04T04:37:30.416Z,97924.78
2023-02-04T04:40:00.675Z,97942.94
2023-02-04T04:42:29.082Z,97950.06
2023-02-04T04:44:57.770Z,97965.88
2023-02-04T04:47:26.168Z,97976.06
2023-02-04T04:49:55.399Z,97998.94
2023-02-04T04:52:23.784Z,98002.31
2023-02-04T04:54:53.840Z,98019.31
2023-02-04T04:57:22.416Z,98024.50
2023-02-04T04:59:51.179Z,98044.69
2023-02-04T05:02:19.564Z,98067.44
2023-02-04T05:04:48.372Z,98074.81
2023-02-04T05:07:16.828Z,98096.38
2023-02-04T05:09:45.426Z,98099.50
2023-02-04T05:12:15.335Z,98105.72
2023-02-04T05:14:43.811Z,98129.19
2023-02-04T05:17:12.759Z,98141.72
2023-02-04T05:19:41.366Z,98146.88
2023-02-04T05:22:10.413Z,98172.19
2023-02-04T05:24:38.931Z,98166.38
2023-02-04T05:27:07.193Z,98211.25
2023-02-04T05:29:37.385Z,98227.47
2023-02-04T05:32:06.119Z,98200.28
2023-02-04T05:34:34.750Z,98249.88
2023-02-04T05:37:03.119Z,98289.81
2023-02-04T05:39:31.616Z,98285.59
2023-02-04T05:42:00.153Z,98307.72
2023-02-04T05:44:29.896Z,98332.50
2023-02-04T05:46:59.800Z,98340.50
2023-02-04T05:49:28.376Z,98344.81
2023-02-04T05:51:56.837Z,98363.09
2023-02-04T05:54:26.361Z,98382.13
2023-02-04T05:56:54.717Z,98388.44
2023-02-04T05:59:23.710Z,98409.88
2023-02-04T06:01:51.908Z,98426.47
2023-02-04T06:04:22.023Z,98433.44
2023-02-04T06:06:50.245Z,98450.78
2023-02-04T06:09:18.974Z,98467.94
2023-02-04T06:11:47.404Z,98480.53
2023-02-04T06:14:15.972Z,98502.41
2023-02-04T06:16:44.397Z,98511.72
2023-02-04T06:19:14.137Z,98514.91
2023-02-04T06:21:43.952Z,98542.88
2023-02-04T06:24:12.601Z,98560.47
2023-02-04T06:26:40.871Z,98549.06
2023-02-04T06:29:09.689Z,98558.06
2023-02-04T06:31:39.263Z,98586.66
2023-02-04T06:34:08.106Z,98590.25
2023-02-04T06:36:36.550Z,98610.72
2023-02-04T06:39:06.665Z,98629.59
2023-02-04T06:41:35.331Z,98640.38
2023-02-04T06:44:04.459Z,98645.06
2023-02-04T06:46:32.774Z,98665.41
2023-02-04T06:49:01.725Z,98664.06
2023-02-04T06:51:30.057Z,98693.41
2023-02-04T06:53:59.435Z,98702.59
2023-02-04T06:56:29.949Z,98699.31
2023-02-04T06:58:58.761Z,98714.22
2023-02-04T07:01:27.344Z,98742.31
2023-02-04T07:03:55.995Z,98752.00
2023-02-04T07:06:25.053Z,98750.38
2023-02-04T07:08:53.829Z,98769.03
2023-02-04T07:11:22.266Z,98782.31
2023-02-04T07:13:52.409Z,98797.13
2023-02-04T07:16:20.762Z,98807.84
2023-02-04T07:18:49.462Z,98816.50
2023-02-04T07:21:17.721Z,98817.78
2023-02-04T07:23:46.742Z,98817.00
2023-02-04T07:26:15.017Z,98835.31
2023-02-04T07:28:44.561Z,98851.88
2023-02-04T07:31:15.120Z,98835.09
2023-02-04T07:33:43.658Z,98852.47
2023-02-04T07:36:13.745Z,98864.84
2023-02-04T07:38:42.904Z,98869.75
2023-02-04T07:41:11.121Z,98865.84
2023-02-04T07:43:40.022Z,98869.41
2023-02-04T07:46:08.317Z,98877.22
2023-02-04T07:48:38.540Z,98885.75
2023-02-04T07:51:07.301Z,98895.88
2023-02-04T07:53:35.967Z,98904.72
2023-02-04T07:56:04.649Z,98902.50
2023-02-04T07:58:33.379Z,98911.19
2023-02-04T08:01:02.287Z,98927.53
2023-02-04T08:03:31.882Z,98914.44
2023-02-04T08:06:02.624Z,98933.50
2023-02-04T08:08:31.486Z,98947.66
2023-02-04T08:10:59.776Z,98945.97
2023-02-04T08:13:28.587Z,98953.22
2023-02-04T08:15:56.887Z,98977.41
2023-02-04T08:18:26.203Z,98980.41
2023-02-04T08:20:54.608Z,98995.09
2023-02-04T08:23:24.750Z,98985.31
2023-02-04T08:25:53.400Z,99008.84
2023-02-04T08:28:22.063Z,99017.69
2023-02-04T08:30:50.580Z,99028.41
2023-02-04T08:33:19.351Z,99031.53
2023-02-04T08:35:47.998Z,99035.28
2023-02-04T08:38:16.691Z,99051.47
2023-02-04T08:40:46.473Z,99065.72
2023-02-04T08:43:15.222Z,99055.88
2023-02-04T08:45:43.567Z,99074.38
2023-02-04T08:48:12.385Z,99072.13
2023-02-04T08:50:40.782Z,99073.63
2023-02-04T08:53:09.509Z,99064.91
2023-02-04T08:55:38.071Z,99075.47
2023-02-04T08:58:08.072Z,99075.31
2023-02-04T09:00:37.577Z,99087.47
2023-02-04T09:03:06.257Z,99086.22
2023-02-04T09:05:35.367Z,99086.88
2023-02-04T09:08:04.274Z,99095.16
2023-02-04T09:10:32.938Z,99104.16
2023-02-04T09:13:02.571Z,99102.53
2023-02-04T09:15:32.520Z,99102.03
2023-02-04T09:18:11.656Z,99110.03
2023-02-04T09:20:39.915Z,99123.97
2023-02-04T09:23:10.781Z,99144.09
2023-02-04T09:25:51.127Z,99139.25
2023-02-04T09:28:21.197Z,99144.50
2023-02-04T09:30:51.473Z,99159.34
2023-02-04T09:33:21.091Z,99162.88
2023-02-04T09:35:49.446Z,99172.88
2023-02-04T09:38:18.934Z,99170.28
2023-02-04T09:40:49.422Z,99174.13
2023-02-04T09:43:25.254Z,99171.72
2023-02-04T09:45:55.572Z,99172.47
2023-02-04T09:48:25.270Z,99175.41
2023-02-04T09:51:05.920Z,99180.91
2023-02-04T09:53:35.988Z,99188.19
2023-02-04T09:56:04.386Z,99199.13
2023-02-04T09:58:35.367Z,99202.94
2023-02-04T10:01:10.778Z,99200.72
2023-02-04T10:03:46.763Z,99202.44
2023-02-04T10:06:16.645Z,99202.91
2023-02-04T10:08:46.379Z,99202.19
2023-02-04T10:11:15.184Z,99196.97
2023-02-04T10:13:45.597Z,99204.31
2023-02-04T10:16:17.824Z,99207.50
2023-02-04T10:18:46.685Z,99193.56
2023-02-04T10:21:18.482Z,99201.06
2023-02-04T10:23:49.139Z,99195.75
2023-02-04T10:26:18.173Z,99203.81
2023-02-04T10:28:47.209Z,99210.38
2023-02-04T10:31:36.125Z,99210.34
2023-02-04T10:34:11.603Z,99222.22
2023-02-04T10:36:40.703Z,99215.91
2023-02-04T10:39:13.976Z,99233.25
2023-02-04T10:41:49.475Z,99218.88
2023-02-04T10:44:20.202Z,99227.59
2023-02-04T10:46:51.177Z,99235.16
2023-02-04T10:49:22.869Z,99232.16
2023-02-04T10:51:53.552Z,99237.31
2023-02-04T10:54:32.322Z,99242.50
2023-02-04T10:57:10.683Z,99249.72
2023-02-04T10:59:39.196Z,99247.06
2023-02-04T11:02:33.106Z,99244.69
2023-02-04T11:05:02.566Z,99271.38
2023-02-04T11:07:31.540Z,99269.59
2023-02-04T11:10:00.036Z,99273.78
2023-02-04T11:12:39.562Z,99280.72
2023-02-04T11:15:29.689Z,99279.47
2023-02-04T11:18:05.323Z,99273.31
2023-02-04T11:20:35.202Z,99272.66
2023-02-04T11:23:16.810Z,99280.94
2023-02-04T11:25:45.381Z,99283.25
2023-02-04T11:28:17.783Z,99269.59
2023-02-04T11:30:46.449Z,99281.22
2023-02-04T11:33:26.525Z,99285.31
2023-02-04T11:36:04.671Z,99305.19
2023-02-04T11:38:34.027Z,99294.75
2023-02-04T11:41:03.215Z,99298.09
2023-02-04T11:43:35.543Z,99310.72
2023-02-04T11:46:07.010Z,99319.50
2023-02-04T11:48:37.770Z,99324.69
2023-02-04T11:51:13.989Z,99332.50
2023-02-04T11:53:42.507Z,99319.31
2023-02-04T11:56:18.326Z,99309.25
2023-02-04T11:58:48.681Z,99316.34
2023-02-04T12:01:21.383Z,99330.84
2023-02-04T12:03:52.881Z,99322.25
2023-02-04T12:06:26.203Z,99327.72
2023-02-04T12:08:54.727Z,99325.09
2023-02-04T12:11:30.428Z,99338.28
2023-02-04T12:14:00.112Z,99341.72
2023-02-04T12:16:28.790Z,99341.25
2023-02-04T12:18:59.482Z,99331.81
2023-02-04T12:21:28.068Z,99337.63
2023-02-04T12:23:56.534Z,99336.78
2023-02-04T12:26:25.358Z,99355.44
2023-02-04T12:28:53.572Z,99342.53
2023-02-04T12:31:22.586Z,99352.81
2023-02-04T12:33:50.848Z,99364.22
2023-02-04T12:36:21.007Z,99360.88
2023-02-04T12:38:49.219Z,99362.63
2023-02-04T12:41:19.927Z,99348.59
2023-02-04T12:43:50.685Z,99360.03
2023-02-04T12:46:19.554Z,99361.94
2023-02-04T12:48:50.938Z,99360.19
2023-02-04T12:51:21.417Z,99376.22
2023-02-04T12:53:49.679Z,99368.22
2023-02-04T12:56:20.729Z,99364.28
2023-02-04T12:58:49.099Z,99370.09
2023-02-04T13:01:18.266Z,99373.50
2023-02-04T13:03:46.639Z,99389.53
2023-02-04T13:06:15.366Z,99385.28
2023-02-04T13:08:44.988Z,99391.63
2023-02-04T13:11:13.675Z,99385.13
2023-02-04T13:13:42.031Z,99386.69
2023-02-04T13:16:10.534Z,99395.28
2023-02-04T13:18:39.431Z,99390.25
2023-02-04T13:21:07.903Z,99387.25
2023-02-04T13:23:36.507Z,99403.50
2023-02-04T13:26:07.951Z,99411.25
2023-02-04T13:28:36.347Z,99407.38
2023-02-04T13:31:06.573Z,99418.88
2023-02-04T13:33:35.121Z,99417.22
2023-02-04T13:36:03.875Z,99421.19
2023-02-04T13:38:32.280Z,99430.41
2023-02-04T13:41:00.927Z,99423.31
2023-02-04T13:43:30.877Z,99430.56
2023-02-04T13:45:59.759Z,99435.28
2023-02-04T13:48:28.142Z,99443.63
2023-02-04T13:50:57.010Z,99442.59
2023-02-04T13:53:26.816Z,99437.09
2023-02-04T13:55:55.678Z,99444.69
2023-02-04T13:58:23.995Z,99439.75
2023-02-04T14:00:57.617Z,99451.09
2023-02-04T14:03:26.077Z,99454.25
2023-02-04T14:05:55.419Z,99444.22
2023-02-04T14:08:24.895Z,99457.53
2023-02-04T14:10:53.608Z,99463.75
2023-02-04T14:13:21.957Z,99461.69
2023-02-04T14:15:50.425Z,99459.38
2023-02-04T14:18:21.216Z,99467.31
2023-02-04T14:20:50.413Z,99462.09
2023-02-04T14:23:18.955Z,99463.06
2023-02-04T14:25:47.569Z,99475.03
2023-02-04T14:28:16.188Z,99474.94
2023-02-04T14:30:44.884Z,99476.22
2023-02-04T14:33:15.174Z,99483.41
2023-02-04T14:35:45.424Z,99486.66
2023-02-04T14:38:16.130Z,99486.75
2023-02-04T14:40:45.837Z,99486.34
2023-02-04T14:43:14.352Z,99486.94
2023-02-04T14:45:43.072Z,99492.00
2023-02-04T14:48:11.424Z,99488.66
2023-02-04T14:50:39.926Z,99487.84
2023-02-04T14:53:09.699Z,99486.94
2023-02-04T14:55:38.243Z,99490.16
2023-02-04T14:58:06.598Z,99511.38
2023-02-04T15:00:35.642Z,99503.09
2023-02-04T15:03:05.501Z,99509.06
2023-02-04T15:05:34.248Z,99514.78
2023-02-04T15:08:02.628Z,99521.84
2023-02-04T15:10:32.871Z,99537.84
2023-02-04T15:13:01.599Z,99534.56
2023-02-04T15:15:30.154Z,99533.75
2023-02-04T15:17:58.677Z,99543.13
2023-02-04T15:20:27.185Z,99539.75
2023-02-04T15:22:56.636Z,99536.00
2023-02-04T15:25:25.502Z,99536.00
2023-02-04T15:27:55.274Z,99540.00
2023-02-04T15:30:24.140Z,99544.38
2023-02-04T15:32:52.482Z,99546.44
2023-02-04T15:35:22.190Z,99546.22
2023-02-04T15:37:50.458Z,99550.59
2023-02-04T15:40:19.603Z,99552.47
2023-02-04T15:42:48.484Z,99549.34
2023-02-04T15:45:18.589Z,99558.06
2023-02-04T15:47:46.914Z,99554.50
2023-02-04T15:50:15.723Z,99548.28
2023-02-04T15:52:44.012Z,99563.69
2023-02-04T15:55:12.573Z,99557.88
2023-02-04T16:00:39.394Z,99556.84
2023-02-04T16:03:08.093Z,99553.09
2023-02-04T16:05:36.430Z,99558.06
2023-02-04T16:08:05.248Z,99564.75
2023-02-04T16:10:33.876Z,99564.53
2023-02-04T16:13:02.471Z,99567.44
2023-02-04T16:15:30.872Z,99563.44
2023-02-04T16:18:08.576Z,99576.63
2023-02-04T16:20:36.853Z,99583.84
2023-02-04T16:23:07.215Z,99589.66
2023-02-04T16:25:35.646Z,99592.78
2023-02-04T16:28:05.495Z,99587.59
2023-02-04T16:30:33.935Z,99584.03
2023-02-04T16:33:02.468Z,99586.13
2023-02-04T16:35:33.084Z,99583.88
2023-02-04T16:38:01.879Z,99587.78
2023-02-04T16:40:30.487Z,99587.97
2023-02-04T16:42:59.892Z,99584.88
2023-02-04T16:45:28.334Z,99586.94
2023-02-04T16:47:57.358Z,99596.47
2023-02-04T16:50:25.793Z,99593.59
2023-02-04T16:52:55.701Z,99598.88
2023-02-04T16:55:25.914Z,99597.34
2023-02-04T16:57:54.546Z,99591.72
2023-02-04T17:00:22.863Z,99598.38
2023-02-04T17:02:51.586Z,99595.47
2023-02-04T17:05:21.521Z,99595.97
2023-02-04T17:07:50.161Z,99598.81
2023-02-04T17:10:40.040Z,99590.97
2023-02-04T17:13:08.701Z,99600.91
2023-02-04T17:15:37.015Z,99591.94
2023-02-04T17:18:05.800Z,99607.75
2023-02-04T17:20:34.885Z,99590.88
2023-02-04T17:23:03.817Z,99600.91
2023-02-04T17:25:33.925Z,99598.25
2023-02-04T17:28:03.158Z,99598.78
2023-02-04T17:30:31.519Z,99604.34
2023-02-04T17:33:00.182Z,99602.69
2023-02-04T17:35:28.509Z,99604.13
2023-02-04T17:37:58.000Z,99597.88
2023-02-04T17:40:27.089Z,99605.16
2023-02-04T17:42:58.535Z,99602.28
2023-02-04T17:45:26.851Z,99612.97
2023-02-04T17:47:55.620Z,99614.94
2023-02-04T17:50:23.900Z,99612.19
2023-02-04T17:52:52.694Z,99614.72
2023-02-04T17:55:24.928Z,99616.28
2023-02-04T17:57:53.605Z,99616.38
2023-02-04T18:00:25.917Z,99618.38
2023-02-04T18:02:55.122Z,99618.28
2023-02-04T18:05:26.895Z,99621.06
2023-02-04T18:08:01.673Z,99625.50
2023-02-04T18:10:35.337Z,99625.09
2023-02-04T18:13:11.680Z,99629.88
2023-02-04T18:15:41.465Z,99630.06
2023-02-04T18:18:18.887Z,99627.63
2023-02-04T18:20:47.338Z,99625.44
2023-02-04T18:23:17.915Z,99631.34
2023-02-04T18:25:48.758Z,99629.00
2023-02-04T18:28:19.402Z,99638.16
2023-02-04T18:30:53.192Z,99632.19
2023-02-04T18:33:24.959Z,99633.78
2023-02-04T18:35:54.907Z,99627.75
2023-02-04T18:38:25.957Z,99623.91
2023-02-04T18:41:00.605Z,99627.97
2023-02-04T18:43:29.903Z,99618.75
2023-02-04T18:46:02.966Z,99618.59
2023-02-04T18:49:03.257Z,99623.81
2023-02-04T18:51:34.551Z,99621.88
2023-02-04T18:54:25.058Z,99634.88
2023-02-04T18:56:56.623Z,99625.09
2023-02-04T18:59:28.742Z,99622.03
2023-02-04T19:01:58.439Z,99618.97
2023-02-04T19:04:27.538Z,99622.78
2023-02-04T19:06:56.946Z,99621.63
2023-02-04T19:09:27.210Z,99622.03
2023-02-04T19:11:56.413Z,99625.72
2023-02-04T19:14:28.161Z,99627.78
2023-02-04T19:17:02.933Z,99631.16
2023-02-04T19:19:39.226Z,99637.63
2023-02-04T19:22:21.872Z,99642.91
2023-02-04T19:24:52.820Z,99639.88
2023-02-04T19:27:29.376Z,99645.56
2023-02-04T19:29:59.772Z,99652.16
2023-02-04T19:32:32.214Z,99655.66
2023-02-04T19:35:17.143Z,99652.81
2023-02-04T19:37:46.057Z,99653.44
2023-02-04T19:40:33.536Z,99649.38
2023-02-04T19:43:17.359Z,99655.72
2023-02-04T19:45:46.740Z,99661.84
2023-02-04T19:48:23.072Z,99655.59
2023-02-04T19:50:54.123Z,99656.13
2023-02-04T19:53:24.348Z,99654.81
2023-02-04T19:55:53.912Z,99651.00
2023-02-04T19:58:24.613Z,99657.31
2023-02-04T20:01:01.304Z,99647.78
2023-02-04T20:03:45.374Z,99672.75
2023-02-04T20:06:30.266Z,99671.50
2023-02-04T20:09:03.831Z,99672.66
2023-02-04T20:11:45.442Z,99677.22
2023-02-04T20:14:26.785Z,99684.50
2023-02-04T20:16:57.546Z,99694.50
2023-02-04T20:19:37.133Z,99697.75
2023-02-04T20:22:35.801Z,99703.56
2023-02-04T20:25:39.457Z,99701.00
2023-02-04T20:28:40.206Z,99694.97
2023-02-04T20:31:35.635Z,99699.88
2023-02-04T20:34:10.271Z,99713.41
2023-02-04T20:36:42.674Z,99710.19
2023-02-04T20:39:31.036Z,99715.47
2023-02-04T20:42:33.107Z,99709.13
2023-02-04T20:45:23.102Z,99727.00
2023-02-04T20:47:52.998Z,99713.28
2023-02-04T20:50:38.438Z,99729.13
2023-02-04T20:53:16.373Z,99723.34
2023-02-04T20:55:48.400Z,99733.31
2023-02-04T20:58:19.091Z,99725.69
2023-02-04T21:00:52.175Z,99733.94
2023-02-04T21:03:31.637Z,99735.28
2023-02-04T21:06:02.160Z,99735.59
2023-02-04T21:08:38.503Z,99726.81
2023-02-04T21:11:07.563Z,99738.84
2023-02-04T21:13:36.470Z,99733.56
2023-02-04T21:16:05.903Z,99736.06
2023-02-04T21:18:35.191Z,99732.72
2023-02-04T21:21:04.802Z,99742.28
2023-02-04T21:23:34.700Z,99740.81
2023-02-04T21:26:03.444Z,99740.53
2023-02-04T21:28:32.756Z,99734.81
2023-02-04T21:31:01.722Z,99749.06
2023-02-04T21:33:30.479Z,99745.03
2023-02-04T21:35:59.083Z,99756.72
2023-02-04T21:38:27.467Z,99758.00
2023-02-04T21:40:57.514Z,99768.47
2023-02-04T21:43:25.694Z,99761.06
2023-02-04T21:45:54.308Z,99763.84
2023-02-04T21:48:24.757Z,99765.19
2023-02-04T21:50:54.138Z,99757.81
2023-02-04T21:53:22.347Z,99764.22
2023-02-04T21:55:50.996Z,99761.06
2023-02-04T21:58:20.701Z,99761.84
2023-02-04T22:00:49.347Z,99765.72
2023-02-04T22:03:17.800Z,99774.44
2023-02-04T22:05:46.566Z,99774.44
2023-02-04T22:08:14.800Z,99779.00
2023-02-04T22:10:43.420Z,99784.41
2023-02-04T22:13:29.023Z,99781.59
2023-02-04T22:15:58.926Z,99785.66
2023-02-04T22:18:30.781Z,99793.75
2023-02-04T22:20:59.627Z,99801.28
2023-02-04T22:23:27.998Z,99799.88
2023-02-04T22:25:56.601Z,99814.00
2023-02-04T22:28:24.882Z,99816.13
2023-02-04T22:30:54.360Z,99813.72
2023-02-04T22:33:26.495Z,99812.56
2023-02-04T22:35:57.374Z,99822.63
2023-02-04T22:38:25.613Z,99818.34
2023-02-04T22:40:54.327Z,99826.63
2023-02-04T22:43:22.745Z,99834.47
2023-02-04T22:45:51.272Z,99840.75
2023-02-04T22:48:19.541Z,99840.50
2023-02-04T22:50:49.497Z,99834.47
2023-02-04T22:53:18.015Z,99827.03
2023-02-04T22:55:46.647Z,99832.44
2023-02-04T22:58:15.002Z,99828.44
2023-02-04T23:00:44.639Z,99827.22
2023-02-04T23:03:13.177Z,99834.41
2023-02-04T23:05:41.886Z,99844.06
2023-02-04T23:08:11.644Z,99840.56
2023-02-04T23:10:40.277Z,99851.16
2023-02-04T23:13:08.468Z,99848.09
2023-02-04T23:15:37.328Z,99851.34
2023-02-04T23:18:05.858Z,99845.00
2023-02-04T23:20:35.029Z,99846.88
2023-02-04T23:23:03.617Z,99843.69
2023-02-04T23:25:35.359Z,99847.63
2023-02-04T23:28:04.588Z,99849.00
2023-02-04T23:30:33.316Z,99862.97
2023-02-04T23:33:01.713Z,99857.19
2023-02-04T23:35:30.383Z,99854.34
2023-02-04T23:37:58.960Z,99855.19
2023-02-04T23:40:27.487Z,99856.78
2023-02-04T23:42:57.128Z,99851.78
2023-02-04T23:45:26.229Z,99849.88
2023-02-04T23:47:54.589Z,99850.94
2023-02-04T23:50:23.324Z,99848.75
2023-02-04T23:52:51.699Z,99849.97
2023-02-04T23:55:20.306Z,99845.69
2023-02-04T23:57:49.856Z,99841.00
